Time;durP1;ratioP1;P1;durP2;ratioP2;P2;SDS_P1;SDS_P2;PMS_P1;PMS_P2;Temp;Humidity;BMP_temperature;BMP_pressure;BME280_temperature;BME280_humidity;BME280_pressure;Samples;Min_cycle;Max_cycle;Signal;HPM_P1;HPM_P2
2023/01/29 00:02:05;;;;;;;28.73;19.42;;;3.70;99.90;;;;;;4906529;29;20722;-71
2023/01/29 00:04:34;;;;;;;37.20;22.67;;;3.70;99.90;;;;;;4897086;29;20161;-72
2023/01/29 00:07:02;;;;;;;37.80;23.93;;;3.70;99.90;;;;;;4904557;29;20197;-72
2023/01/29 00:09:28;;;;;;;32.10;21.48;;;3.70;99.90;;;;;;4902180;29;20430;-72
2023/01/29 00:12:01;;;;;;;31.63;22.10;;;3.70;99.90;;;;;;4899331;29;20208;-72
2023/01/29 00:14:27;;;;;;;32.30;21.85;;;3.70;99.90;;;;;;4896572;29;20189;-72
2023/01/29 00:16:54;;;;;;;31.25;21.20;;;3.70;99.90;;;;;;4917952;29;20713;-72
2023/01/29 00:19:20;;;;;;;29.38;20.95;;;3.70;99.90;;;;;;4897663;29;20192;-71
2023/01/29 00:21:48;;;;;;;34.88;22.05;;;3.70;99.90;;;;;;4921232;29;20207;-72
2023/01/29 00:24:14;;;;;;;35.35;21.98;;;3.70;99.90;;;;;;4912575;29;20205;-72
2023/01/29 00:26:41;;;;;;;38.42;22.98;;;3.70;99.90;;;;;;4896402;29;20210;-72
2023/01/29 00:29:12;;;;;;;30.20;20.60;;;3.60;99.90;;;;;;4911695;29;20165;-72
2023/01/29 00:31:46;;;;;;;32.60;21.10;;;3.60;99.90;;;;;;4908733;29;20695;-72
2023/01/29 00:34:14;;;;;;;37.17;23.42;;;3.70;99.90;;;;;;4893803;29;20318;-72
2023/01/29 00:36:44;;;;;;;35.10;22.42;;;3.60;99.90;;;;;;4907743;29;20213;-72
2023/01/29 00:39:11;;;;;;;35.47;21.40;;;3.60;99.90;;;;;;4922771;29;20196;-72
2023/01/29 00:50:01;;;;;;;33.25;20.90;;;3.60;99.90;;;;;;4909310;29;20273;-72
2023/01/29 00:52:30;;;;;;;35.40;20.75;;;3.60;99.90;;;;;;4911585;29;20243;-72
2023/01/29 00:55:00;;;;;;;33.60;22.35;;;3.60;99.90;;;;;;4926730;29;20642;-71
2023/01/29 00:57:28;;;;;;;33.15;20.08;;;3.60;99.90;;;;;;4905602;29;20630;-73
2023/01/29 00:59:56;;;;;;;34.42;21.83;;;3.50;99.90;;;;;;4905710;29;20185;-72
2023/01/29 01:05:12;;;;;;;34.58;22.52;;;3.50;99.90;;;;;;4906911;29;20255;-71
2023/01/29 01:07:41;;;;;;;31.40;21.63;;;3.50;99.90;;;;;;4898145;29;20189;-72
2023/01/29 01:10:29;;;;;;;37.20;21.70;;;3.50;99.90;;;;;;4913355;29;20189;-73
2023/01/29 01:12:57;;;;;;;34.10;21.95;;;3.50;99.90;;;;;;4876851;29;20293;-74
2023/01/29 01:15:29;;;;;;;29.67;20.90;;;3.50;99.90;;;;;;4874980;29;20211;-75
2023/01/29 01:17:57;;;;;;;32.25;21.08;;;3.50;99.90;;;;;;4859205;29;20187;-75
2023/01/29 01:20:25;;;;;;;35.03;19.48;;;3.50;99.90;;;;;;4862980;29;20195;-75
2023/01/29 01:22:55;;;;;;;32.10;21.20;;;3.50;99.90;;;;;;4850176;29;20211;-75
2023/01/29 01:25:45;;;;;;;32.78;20.75;;;3.40;99.90;;;;;;4872022;29;20782;-75
2023/01/29 01:28:11;;;;;;;30.08;20.17;;;3.40;99.90;;;;;;4874117;29;20541;-74
2023/01/29 01:30:40;;;;;;;36.22;21.60;;;3.40;99.90;;;;;;4891456;29;20596;-75
2023/01/29 01:33:07;;;;;;;36.45;20.33;;;3.40;99.90;;;;;;4861127;29;20183;-75
2023/01/29 01:35:33;;;;;;;32.60;21.88;;;3.40;99.90;;;;;;4878791;29;20352;-74
2023/01/29 01:38:01;;;;;;;34.80;21.40;;;3.40;99.90;;;;;;4878932;29;20193;-74
2023/01/29 01:40:29;;;;;;;34.03;21.33;;;3.40;99.90;;;;;;4861325;29;20246;-75
2023/01/29 01:42:58;;;;;;;29.35;20.25;;;3.40;99.90;;;;;;4881139;29;20181;-75
2023/01/29 01:45:33;;;;;;;32.38;20.90;;;3.40;99.90;;;;;;4879566;29;20264;-75
2023/01/29 01:48:05;;;;;;;33.70;20.70;;;3.40;99.90;;;;;;4893060;29;20232;-75
2023/01/29 01:50:34;;;;;;;32.42;20.95;;;3.40;99.90;;;;;;4863523;29;20259;-75
2023/01/29 01:53:07;;;;;;;31.75;20.90;;;3.40;99.90;;;;;;4842953;29;20222;-75
2023/01/29 01:55:51;;;;;;;35.08;22.42;;;3.30;99.90;;;;;;4846034;29;20680;-75
2023/01/29 01:58:26;;;;;;;29.55;20.35;;;3.30;99.90;;;;;;4866092;29;20217;-75
2023/01/29 02:00:57;;;;;;;36.63;22.10;;;3.40;99.90;;;;;;4871019;29;20183;-75
2023/01/29 02:11:52;;;;;;;31.60;20.17;;;3.30;99.90;;;;;;4852612;29;20214;-75
2023/01/29 02:14:21;;;;;;;32.60;21.73;;;3.30;99.90;;;;;;4860329;29;20568;-75
2023/01/29 02:16:47;;;;;;;32.50;22.00;;;3.30;99.90;;;;;;4864525;29;20712;-75
2023/01/29 02:19:26;;;;;;;31.63;21.52;;;3.30;99.90;;;;;;4888741;29;20182;-75
2023/01/29 02:22:10;;;;;;;32.53;21.38;;;3.30;99.90;;;;;;4883748;29;20207;-75
2023/01/29 02:24:55;;;;;;;32.95;20.48;;;3.30;99.90;;;;;;4859722;29;20180;-75
2023/01/29 02:27:48;;;;;;;35.42;22.65;;;3.30;99.90;;;;;;4848330;29;20207;-75
2023/01/29 02:30:46;;;;;;;34.67;20.92;;;3.20;99.90;;;;;;4831739;29;20653;-75
2023/01/29 02:33:25;;;;;;;35.45;21.38;;;3.20;99.90;;;;;;4841768;29;20653;-75
2023/01/29 02:36:12;;;;;;;32.42;20.55;;;3.20;99.90;;;;;;4860507;29;20214;-75
2023/01/29 02:38:44;;;;;;;33.17;22.30;;;3.20;99.90;;;;;;4875523;29;20210;-75
2023/01/29 02:41:23;;;;;;;32.15;20.63;;;3.20;99.90;;;;;;4864164;29;20277;-75
2023/01/29 02:44:25;;;;;;;32.53;20.95;;;3.20;99.90;;;;;;4872951;29;20202;-75
2023/01/29 02:47:04;;;;;;;33.53;21.40;;;3.20;99.90;;;;;;4839937;29;20277;-74
2023/01/29 02:49:45;;;;;;;32.72;21.63;;;3.20;99.90;;;;;;4860693;29;20692;-75
2023/01/29 02:52:20;;;;;;;33.70;21.25;;;3.20;99.90;;;;;;4842933;29;20211;-75
2023/01/29 02:54:55;;;;;;;35.80;21.40;;;3.20;99.90;;;;;;4848711;29;20214;-75
2023/01/29 02:57:38;;;;;;;34.40;21.90;;;3.20;99.90;;;;;;4843026;29;20550;-74
2023/01/29 03:00:09;;;;;;;30.52;20.45;;;3.10;99.90;;;;;;4843454;29;20210;-74
2023/01/29 03:02:54;;;;;;;32.55;21.50;;;3.10;99.90;;;;;;4860162;29;20286;-74
2023/01/29 03:05:29;;;;;;;34.42;21.92;;;3.10;99.90;;;;;;4874796;29;20218;-74
2023/01/29 03:08:02;;;;;;;37.05;21.15;;;3.10;99.90;;;;;;4873844;29;20282;-74
2023/01/29 03:10:51;;;;;;;32.35;20.05;;;3.10;99.90;;;;;;4860701;29;20211;-74
2023/01/29 03:13:30;;;;;;;33.88;21.75;;;3.10;99.90;;;;;;4878822;29;20546;-75
2023/01/29 03:16:05;;;;;;;36.40;22.75;;;3.10;99.90;;;;;;4883228;29;20634;-74
2023/01/29 03:18:44;;;;;;;32.28;20.70;;;3.10;99.90;;;;;;4878600;29;20178;-74
2023/01/29 03:32:50;;;;;;;34.15;21.83;;;3.10;99.90;;;;;;4874810;29;20190;-74
2023/01/29 03:35:32;;;;;;;35.30;22.38;;;3.10;99.90;;;;;;4867974;29;20219;-75
2023/01/29 03:38:00;;;;;;;32.22;21.65;;;3.00;99.90;;;;;;4843777;29;20191;-75
2023/01/29 03:40:31;;;;;;;34.35;22.17;;;3.00;99.90;;;;;;4874994;29;20167;-74
2023/01/29 03:43:10;;;;;;;31.60;20.60;;;3.00;99.90;;;;;;4858964;29;20623;-75
2023/01/29 03:45:48;;;;;;;33.65;22.10;;;3.00;99.90;;;;;;4859643;29;20218;-76
2023/01/29 03:48:17;;;;;;;33.85;21.38;;;3.00;99.90;;;;;;4873570;29;20186;-73
2023/01/29 03:50:50;;;;;;;36.47;22.90;;;3.00;99.90;;;;;;4858965;29;20205;-75
2023/01/29 03:53:45;;;;;;;32.97;20.40;;;3.00;99.90;;;;;;4881892;29;20261;-75
2023/01/29 03:56:13;;;;;;;39.63;23.70;;;3.00;99.90;;;;;;4885231;29;20268;-75
2023/01/29 03:59:05;;;;;;;35.70;22.65;;;3.00;99.90;;;;;;4873720;29;20202;-75
2023/01/29 04:01:59;;;;;;;34.85;22.67;;;3.00;99.90;;;;;;4842043;29;20185;-75
2023/01/29 04:04:35;;;;;;;30.80;20.05;;;3.00;99.90;;;;;;4845039;29;20808;-75
2023/01/29 04:07:11;;;;;;;34.20;21.95;;;3.00;99.90;;;;;;4882553;29;20282;-75
2023/01/29 04:09:54;;;;;;;35.50;21.67;;;2.90;99.90;;;;;;4856123;29;20818;-75
2023/01/29 04:12:25;;;;;;;32.83;21.27;;;3.00;99.90;;;;;;4850908;29;20650;-75
2023/01/29 04:14:53;;;;;;;36.28;21.42;;;3.00;99.90;;;;;;4851823;29;20214;-75
2023/01/29 04:17:24;;;;;;;31.30;19.90;;;3.00;99.90;;;;;;4871289;29;20194;-75
2023/01/29 04:20:02;;;;;;;34.05;21.23;;;2.90;99.90;;;;;;4848992;29;20261;-75
2023/01/29 04:22:35;;;;;;;33.67;21.80;;;2.90;99.90;;;;;;4859010;29;20286;-75
2023/01/29 04:25:14;;;;;;;33.05;21.20;;;2.90;99.90;;;;;;4883091;29;20213;-75
2023/01/29 04:27:50;;;;;;;33.33;20.80;;;2.90;99.90;;;;;;4853180;29;20179;-75
2023/01/29 04:30:23;;;;;;;31.92;20.92;;;2.90;99.90;;;;;;4879146;29;20609;-75
2023/01/29 04:33:07;;;;;;;33.70;21.02;;;2.90;99.90;;;;;;4866426;29;20255;-74
2023/01/29 04:36:10;;;;;;;30.38;20.63;;;2.90;99.90;;;;;;4851356;29;20712;-75
2023/01/29 04:38:54;;;;;;;36.45;21.45;;;2.90;99.90;;;;;;4859930;29;20532;-75
2023/01/29 04:41:35;;;;;;;32.70;21.15;;;2.90;99.90;;;;;;4858975;29;20211;-75
2023/01/29 04:44:26;;;;;;;30.60;20.38;;;2.90;99.90;;;;;;4825377;29;20183;-75
2023/01/29 04:47:03;;;;;;;33.00;21.02;;;2.80;99.90;;;;;;4858748;29;20219;-75
2023/01/29 04:49:39;;;;;;;32.05;20.40;;;2.90;99.90;;;;;;4840711;29;20184;-75
2023/01/29 04:52:32;;;;;;;28.83;19.63;;;2.80;99.90;;;;;;4854333;29;20206;-75
2023/01/29 04:55:11;;;;;;;35.33;21.00;;;2.80;99.90;;;;;;4861044;29;20585;-75
2023/01/29 04:57:45;;;;;;;30.20;20.67;;;2.90;99.90;;;;;;4893937;29;20601;-74
2023/01/29 05:00:19;;;;;;;36.35;22.70;;;2.80;99.90;;;;;;4878295;29;20274;-75
2023/01/29 05:02:46;;;;;;;32.33;20.55;;;2.80;99.90;;;;;;4862570;29;20269;-75
2023/01/29 05:05:15;;;;;;;32.95;20.08;;;2.80;99.90;;;;;;4845163;29;20343;-75
2023/01/29 05:07:46;;;;;;;31.27;20.60;;;2.80;99.90;;;;;;4847128;29;20641;-75
2023/01/29 05:10:15;;;;;;;34.90;22.35;;;2.80;99.90;;;;;;4874774;29;20187;-75
2023/01/29 05:12:45;;;;;;;28.75;18.65;;;2.80;99.90;;;;;;4859623;29;20218;-75
2023/01/29 05:15:22;;;;;;;33.85;20.88;;;2.80;99.90;;;;;;4864571;29;20205;-75
2023/01/29 05:17:52;;;;;;;34.33;21.80;;;2.80;99.90;;;;;;4876017;29;20717;-75
2023/01/29 05:20:21;;;;;;;34.08;21.90;;;2.80;99.90;;;;;;4863348;29;20205;-75
2023/01/29 05:22:48;;;;;;;30.95;20.08;;;2.80;99.90;;;;;;4874285;29;20258;-74
2023/01/29 05:25:25;;;;;;;34.22;20.63;;;2.80;99.90;;;;;;4896203;29;20229;-73
2023/01/29 05:28:10;;;;;;;32.83;20.98;;;2.80;99.90;;;;;;4883587;29;20216;-74
2023/01/29 05:30:38;;;;;;;34.15;21.65;;;2.80;99.90;;;;;;4860653;29;20199;-75
2023/01/29 05:33:11;;;;;;;31.55;20.83;;;2.80;99.90;;;;;;4862420;29;20199;-74
2023/01/29 05:35:37;;;;;;;33.20;21.20;;;2.80;99.90;;;;;;4863939;29;20219;-74
2023/01/29 05:38:03;;;;;;;33.92;20.98;;;2.80;99.90;;;;;;4861737;29;20579;-75
2023/01/29 05:40:32;;;;;;;28.40;19.55;;;2.80;99.90;;;;;;4894593;29;20580;-75
2023/01/29 05:42:58;;;;;;;31.10;20.88;;;2.80;99.90;;;;;;4896273;29;20651;-75
2023/01/29 05:45:24;;;;;;;32.70;21.17;;;2.80;99.90;;;;;;4884054;29;20209;-75
2023/01/29 05:47:54;;;;;;;32.22;20.35;;;2.80;99.90;;;;;;4865940;29;20443;-74
2023/01/29 05:50:20;;;;;;;37.65;21.77;;;2.70;99.90;;;;;;4861182;29;20207;-75
2023/01/29 05:52:46;;;;;;;31.13;21.33;;;2.80;99.90;;;;;;4848988;29;20714;-75
2023/01/29 05:55:14;;;;;;;35.33;20.92;;;2.80;99.90;;;;;;4854329;29;20479;-75
2023/01/29 05:57:40;;;;;;;35.85;20.90;;;2.80;99.90;;;;;;4862634;29;20192;-73
2023/01/29 06:00:08;;;;;;;32.13;19.27;;;2.70;99.90;;;;;;4877421;29;20548;-75
2023/01/29 06:02:38;;;;;;;35.28;20.83;;;2.80;99.90;;;;;;4845629;29;20212;-75
2023/01/29 06:05:09;;;;;;;33.28;21.15;;;2.80;99.90;;;;;;4865627;29;20218;-75
2023/01/29 06:07:35;;;;;;;33.30;20.23;;;2.80;99.90;;;;;;4867253;29;20810;-75
2023/01/29 06:10:04;;;;;;;34.47;20.83;;;2.70;99.90;;;;;;4860576;29;20465;-75
2023/01/29 06:12:30;;;;;;;34.15;20.65;;;2.80;99.90;;;;;;4860483;29;20319;-75
2023/01/29 06:14:56;;;;;;;32.25;21.05;;;2.80;99.90;;;;;;4860387;29;20302;-75
2023/01/29 06:17:24;;;;;;;32.15;20.42;;;2.70;99.90;;;;;;4854980;29;20215;-75
2023/01/29 06:19:53;;;;;;;33.10;21.17;;;2.70;99.90;;;;;;4843352;29;21074;-75
2023/01/29 06:22:19;;;;;;;35.47;20.92;;;2.70;99.90;;;;;;4846701;29;20467;-75
2023/01/29 06:24:45;;;;;;;32.80;20.88;;;2.70;99.90;;;;;;4842341;29;20226;-75
2023/01/29 06:27:11;;;;;;;29.97;19.40;;;2.70;99.90;;;;;;4859917;29;20196;-75
2023/01/29 06:29:37;;;;;;;33.67;21.15;;;2.80;99.90;;;;;;4861568;29;20446;-74
2023/01/29 06:32:03;;;;;;;29.90;20.17;;;2.70;99.90;;;;;;4864453;29;20191;-75
2023/01/29 06:34:29;;;;;;;31.98;20.52;;;2.70;99.90;;;;;;4860569;29;20171;-75
2023/01/29 06:36:55;;;;;;;30.63;19.87;;;2.70;99.90;;;;;;4859744;29;20221;-75
2023/01/29 06:39:24;;;;;;;30.98;20.50;;;2.70;99.90;;;;;;4875715;29;20542;-75
2023/01/29 06:41:50;;;;;;;34.42;20.95;;;2.70;99.90;;;;;;4856435;29;20187;-75
2023/01/29 06:44:18;;;;;;;33.85;20.75;;;2.70;99.90;;;;;;4860403;29;20198;-74
2023/01/29 06:46:44;;;;;;;34.90;19.58;;;2.80;99.90;;;;;;4854629;29;20202;-75
2023/01/29 06:49:10;;;;;;;34.43;20.90;;;2.70;99.90;;;;;;4860219;29;20618;-75
2023/01/29 06:51:37;;;;;;;29.92;19.25;;;2.70;99.90;;;;;;4867477;29;20464;-74
2023/01/29 06:54:07;;;;;;;33.35;20.35;;;2.70;99.90;;;;;;4869008;29;20191;-75
2023/01/29 06:56:33;;;;;;;31.63;19.70;;;2.70;99.90;;;;;;4863416;29;20591;-74
2023/01/29 06:58:59;;;;;;;33.30;20.80;;;2.80;99.90;;;;;;4860363;29;20202;-75
2023/01/29 07:01:28;;;;;;;35.40;19.10;;;2.70;99.90;;;;;;4863033;29;20549;-75
2023/01/29 07:03:54;;;;;;;32.03;20.50;;;2.70;99.90;;;;;;4861430;29;20542;-75
2023/01/29 07:06:29;;;;;;;34.40;20.90;;;2.70;99.90;;;;;;4853670;29;20641;-75
2023/01/29 07:08:55;;;;;;;32.45;19.60;;;2.70;99.90;;;;;;4849879;29;20599;-75
2023/01/29 07:11:22;;;;;;;32.45;19.45;;;2.70;99.90;;;;;;4873996;29;20583;-75
2023/01/29 07:13:47;;;;;;;33.45;21.00;;;2.70;99.90;;;;;;4858291;29;20194;-75
2023/01/29 07:16:16;;;;;;;33.50;20.77;;;2.70;99.90;;;;;;4855741;29;20207;-74
2023/01/29 07:18:42;;;;;;;29.73;19.20;;;2.70;99.90;;;;;;4855077;29;20960;-75
2023/01/29 07:21:08;;;;;;;29.50;18.83;;;2.70;99.90;;;;;;4860056;29;20202;-74
2023/01/29 07:23:34;;;;;;;31.10;20.05;;;2.70;99.90;;;;;;4860111;29;20530;-74
2023/01/29 07:26:02;;;;;;;31.80;18.90;;;2.70;99.90;;;;;;4878208;29;20219;-74
2023/01/29 07:28:28;;;;;;;31.38;19.75;;;2.70;99.90;;;;;;4848501;29;20957;-74
2023/01/29 07:30:59;;;;;;;31.27;20.20;;;2.70;99.90;;;;;;4857992;29;20190;-74
2023/01/29 07:33:27;;;;;;;32.45;20.13;;;2.70;99.90;;;;;;4858927;29;20217;-74
2023/01/29 07:35:53;;;;;;;31.10;20.00;;;2.70;99.90;;;;;;4861087;29;20215;-74
2023/01/29 07:38:22;;;;;;;28.90;19.58;;;2.70;99.90;;;;;;4849691;29;20278;-74
2023/01/29 07:40:48;;;;;;;31.00;19.55;;;2.70;99.90;;;;;;4853191;29;20365;-74
2023/01/29 07:43:15;;;;;;;30.60;19.77;;;2.70;99.90;;;;;;4892751;29;20177;-74
2023/01/29 07:45:43;;;;;;;35.45;21.13;;;2.70;99.90;;;;;;4874871;29;20219;-74
2023/01/29 07:48:11;;;;;;;30.97;19.97;;;2.70;99.90;;;;;;4874321;29;20893;-74
2023/01/29 07:50:38;;;;;;;28.48;18.45;;;2.70;99.90;;;;;;4860308;29;20514;-74
2023/01/29 07:53:14;;;;;;;36.13;20.85;;;2.70;99.90;;;;;;4893035;29;20171;-75
2023/01/29 07:55:44;;;;;;;34.30;20.48;;;2.70;99.90;;;;;;4847307;29;20227;-74
2023/01/29 07:58:10;;;;;;;34.92;20.83;;;2.70;99.90;;;;;;4862650;29;20227;-74
2023/01/29 08:00:36;;;;;;;35.23;21.50;;;2.70;99.90;;;;;;4861483;29;20184;-73
2023/01/29 08:03:04;;;;;;;36.63;21.00;;;2.70;99.90;;;;;;4866613;29;20443;-74
2023/01/29 08:05:31;;;;;;;33.47;19.77;;;2.70;99.90;;;;;;4861999;29;20697;-74
2023/01/29 08:07:59;;;;;;;30.35;19.30;;;2.70;99.90;;;;;;4875197;29;20195;-75
2023/01/29 08:10:25;;;;;;;32.03;19.80;;;2.70;99.90;;;;;;4858181;29;20243;-75
2023/01/29 08:13:02;;;;;;;37.67;21.33;;;2.70;99.90;;;;;;4877758;29;20477;-75
2023/01/29 08:15:29;;;;;;;32.63;21.33;;;2.70;99.90;;;;;;4857341;29;20475;-76
2023/01/29 08:17:58;;;;;;;28.45;18.55;;;2.70;99.90;;;;;;4869259;29;20512;-76
2023/01/29 08:20:24;;;;;;;37.55;21.08;;;2.70;99.90;;;;;;4873471;29;20739;-75
2023/01/29 08:23:02;;;;;;;32.80;20.58;;;2.70;99.90;;;;;;4855049;29;20195;-74
2023/01/29 08:25:28;;;;;;;34.30;20.38;;;2.70;99.90;;;;;;4857588;29;20260;-74
2023/01/29 08:27:56;;;;;;;33.50;20.55;;;2.70;99.90;;;;;;4864787;29;20190;-75
2023/01/29 08:30:28;;;;;;;30.80;19.08;;;2.70;99.90;;;;;;4860468;29;20204;-75
2023/01/29 08:32:54;;;;;;;32.53;21.05;;;2.70;99.90;;;;;;4848332;29;20185;-74
2023/01/29 08:35:20;;;;;;;36.60;22.50;;;2.70;99.90;;;;;;4842563;29;20220;-75
2023/01/29 08:38:00;;;;;;;34.00;21.27;;;2.70;99.90;;;;;;4862484;29;20191;-75
2023/01/29 08:40:30;;;;;;;34.47;20.48;;;2.70;99.90;;;;;;4878952;29;20186;-74
2023/01/29 08:43:01;;;;;;;35.78;19.50;;;2.70;99.90;;;;;;4849953;29;20187;-74
2023/01/29 08:45:27;;;;;;;34.20;19.95;;;2.70;99.90;;;;;;4852691;29;20232;-74
2023/01/29 08:47:55;;;;;;;33.57;21.10;;;2.70;99.90;;;;;;4843705;29;20176;-75
2023/01/29 08:50:21;;;;;;;35.90;21.55;;;2.70;99.90;;;;;;4883150;29;20451;-74
2023/01/29 08:52:47;;;;;;;40.00;21.50;;;2.70;99.90;;;;;;4871678;29;20324;-74
2023/01/29 08:55:12;;;;;;;35.35;21.98;;;2.60;99.90;;;;;;4869901;29;20658;-74
2023/01/29 08:57:42;;;;;;;35.17;21.75;;;2.60;99.90;;;;;;4860104;29;20732;-74
2023/01/29 09:00:09;;;;;;;34.33;22.17;;;2.60;99.90;;;;;;4870840;29;20695;-74
2023/01/29 09:02:35;;;;;;;36.05;21.63;;;2.60;99.90;;;;;;4860317;29;20183;-74
2023/01/29 09:05:02;;;;;;;38.10;22.23;;;2.70;99.90;;;;;;4871219;29;20683;-74
2023/01/29 09:07:28;;;;;;;33.50;20.58;;;2.60;99.90;;;;;;4874476;29;20205;-75
2023/01/29 09:09:56;;;;;;;33.70;21.70;;;2.70;99.90;;;;;;4864114;29;20567;-75
2023/01/29 09:12:22;;;;;;;36.58;21.50;;;2.70;99.90;;;;;;4856166;29;20196;-75
2023/01/29 09:14:48;;;;;;;33.58;19.73;;;2.70;99.90;;;;;;4844562;29;20286;-75
2023/01/29 09:17:14;;;;;;;35.17;21.40;;;2.60;99.90;;;;;;4867437;29;20363;-74
2023/01/29 09:19:40;;;;;;;38.27;24.07;;;2.60;99.90;;;;;;4861235;29;20432;-75
2023/01/29 09:22:06;;;;;;;35.80;21.55;;;2.70;99.90;;;;;;4872199;29;20450;-74
2023/01/29 09:24:33;;;;;;;37.90;21.80;;;2.70;99.90;;;;;;4875130;29;20171;-74
2023/01/29 09:27:00;;;;;;;36.75;21.13;;;2.60;99.90;;;;;;4860773;29;20580;-75
2023/01/29 09:29:28;;;;;;;31.63;20.05;;;2.60;99.90;;;;;;4848539;29;20194;-75
2023/01/29 09:31:55;;;;;;;41.08;21.15;;;2.60;99.90;;;;;;4873750;29;20243;-74
2023/01/29 09:34:20;;;;;;;35.13;20.92;;;2.60;99.90;;;;;;4865583;29;20223;-75
2023/01/29 09:36:46;;;;;;;35.23;21.10;;;2.60;99.90;;;;;;4863075;29;20302;-75
2023/01/29 09:39:12;;;;;;;35.97;22.17;;;2.60;99.90;;;;;;4874358;29;20428;-74
2023/01/29 09:41:54;;;;;;;40.33;22.27;;;2.60;99.90;;;;;;4875526;29;20187;-74
2023/01/29 09:44:47;;;;;;;41.28;22.77;;;2.60;99.90;;;;;;4875078;29;20428;-74
2023/01/29 09:47:18;;;;;;;36.42;21.02;;;2.60;99.90;;;;;;4854775;29;20195;-74
2023/01/29 09:49:54;;;;;;;37.50;21.85;;;2.60;99.90;;;;;;4872276;29;20266;-74
2023/01/29 09:52:34;;;;;;;36.58;20.85;;;2.60;99.90;;;;;;4853397;29;20221;-74
2023/01/29 09:55:04;;;;;;;40.50;21.73;;;2.60;99.90;;;;;;4886805;29;20249;-75
2023/01/29 09:57:58;;;;;;;43.45;23.45;;;2.60;99.90;;;;;;4852376;29;20691;-74
2023/01/29 10:00:26;;;;;;;36.03;21.25;;;2.60;99.90;;;;;;4865078;29;20829;-75
2023/01/29 10:03:22;;;;;;;39.72;22.15;;;2.60;99.90;;;;;;4858731;29;20725;-74
2023/01/29 10:06:07;;;;;;;38.65;21.55;;;2.60;99.90;;;;;;4819154;29;20223;-74
2023/01/29 10:08:33;;;;;;;36.38;21.70;;;2.60;99.90;;;;;;4890623;29;20182;-74
2023/01/29 10:11:28;;;;;;;39.70;22.43;;;2.60;99.90;;;;;;4882237;29;20209;-75
2023/01/29 10:14:06;;;;;;;36.08;21.85;;;2.60;99.90;;;;;;4858896;29;20965;-75
2023/01/29 10:16:51;;;;;;;37.83;21.65;;;2.60;99.90;;;;;;4861636;29;20305;-76
2023/01/29 10:19:44;;;;;;;40.60;22.05;;;2.60;99.90;;;;;;4861134;29;20635;-74
2023/01/29 10:22:21;;;;;;;36.78;22.70;;;2.60;99.90;;;;;;4860929;29;20219;-73
2023/01/29 10:24:55;;;;;;;36.90;20.85;;;2.60;99.90;;;;;;4845478;29;20566;-73
2023/01/29 10:27:25;;;;;;;34.67;20.75;;;2.70;99.90;;;;;;4860720;29;20163;-73
2023/01/29 10:29:54;;;;;;;36.75;21.48;;;2.70;99.90;;;;;;4876325;29;20167;-75
2023/01/29 10:32:24;;;;;;;35.83;21.73;;;2.70;99.90;;;;;;4861862;29;20219;-72
2023/01/29 10:34:59;;;;;;;39.20;21.73;;;2.60;99.90;;;;;;4844658;29;20198;-72
2023/01/29 10:37:39;;;;;;;36.40;22.85;;;2.70;99.90;;;;;;4876088;29;20247;-72
2023/01/29 10:40:35;;;;;;;36.97;22.67;;;2.70;99.90;;;;;;4859905;29;20629;-71
2023/01/29 10:43:23;;;;;;;37.88;20.25;;;2.70;99.90;;;;;;4860275;29;20206;-74
2023/01/29 10:46:01;;;;;;;34.03;18.92;;;2.70;99.90;;;;;;4875545;29;20198;-73
2023/01/29 10:48:37;;;;;;;31.95;18.65;;;2.70;99.90;;;;;;4874742;29;20210;-73
2023/01/29 10:51:13;;;;;;;40.83;22.10;;;2.70;99.90;;;;;;4860150;29;20182;-73
2023/01/29 10:54:00;;;;;;;38.15;22.13;;;2.70;99.90;;;;;;4847054;29;20211;-77
2023/01/29 10:56:39;;;;;;;35.80;21.00;;;2.70;99.90;;;;;;4846820;29;20214;-76
2023/01/29 10:59:30;;;;;;;34.03;21.05;;;2.70;99.90;;;;;;4861093;29;20211;-75
2023/01/29 11:01:58;;;;;;;36.35;21.27;;;2.70;99.90;;;;;;4848237;29;20222;-76
2023/01/29 11:04:30;;;;;;;36.63;20.67;;;2.80;99.90;;;;;;4860399;29;20199;-79
2023/01/29 11:06:58;;;;;;;39.63;21.27;;;2.70;99.90;;;;;;4871257;29;20202;-75
2023/01/29 11:09:29;;;;;;;35.53;20.25;;;2.70;99.90;;;;;;4878854;29;20179;-74
2023/01/29 11:12:17;;;;;;;36.08;20.73;;;2.80;99.90;;;;;;4893665;29;20194;-75
2023/01/29 11:14:46;;;;;;;35.35;20.00;;;2.80;99.90;;;;;;4882088;29;20665;-75
2023/01/29 11:17:20;;;;;;;37.47;20.17;;;2.80;99.90;;;;;;4878930;29;20190;-75
2023/01/29 11:19:50;;;;;;;32.45;19.67;;;2.80;99.90;;;;;;4893619;29;20182;-74
2023/01/29 11:22:21;;;;;;;38.20;21.17;;;2.80;99.90;;;;;;4877062;29;20209;-74
2023/01/29 11:25:18;;;;;;;35.85;19.35;;;2.80;99.90;;;;;;4869602;29;20204;-75
2023/01/29 11:27:51;;;;;;;40.35;20.02;;;2.80;99.90;;;;;;4857730;29;20182;-77
2023/01/29 11:30:27;;;;;;;33.95;20.05;;;2.80;99.90;;;;;;4892513;29;20186;-74
2023/01/29 11:33:24;;;;;;;35.42;19.52;;;2.80;99.90;;;;;;4874075;29;20187;-73
2023/01/29 11:35:51;;;;;;;36.85;20.48;;;2.80;99.90;;;;;;4852625;29;20309;-73
2023/01/29 11:38:28;;;;;;;36.25;20.73;;;2.80;99.90;;;;;;4859129;29;20212;-74
2023/01/29 11:41:13;;;;;;;41.50;20.20;;;2.80;99.90;;;;;;4857573;29;20681;-72
2023/01/29 11:43:41;;;;;;;34.78;20.55;;;2.80;99.90;;;;;;4857438;29;20624;-74
2023/01/29 11:46:14;;;;;;;39.00;21.38;;;2.80;99.90;;;;;;4839527;29;20275;-74
2023/01/29 11:48:42;;;;;;;33.92;18.70;;;2.80;99.90;;;;;;4881737;29;20186;-74
2023/01/29 11:51:18;;;;;;;36.70;19.73;;;2.80;99.90;;;;;;4865218;29;20199;-72
2023/01/29 11:53:51;;;;;;;36.47;21.70;;;2.80;99.90;;;;;;4872884;29;20218;-73
2023/01/29 11:56:35;;;;;;;38.25;21.15;;;2.80;99.90;;;;;;4867307;29;20216;-72
2023/01/29 11:59:03;;;;;;;40.38;20.23;;;2.80;99.90;;;;;;4857420;29;20685;-73
2023/01/29 12:01:36;;;;;;;37.70;22.85;;;2.80;99.90;;;;;;4850026;29;20645;-73
2023/01/29 12:04:21;;;;;;;40.47;21.05;;;2.90;99.90;;;;;;4873241;29;20210;-73
2023/01/29 12:06:52;;;;;;;38.30;22.25;;;2.90;99.90;;;;;;4856925;29;20293;-73
2023/01/29 12:09:26;;;;;;;40.47;20.48;;;2.90;99.90;;;;;;4830262;29;20243;-72
2023/01/29 12:12:19;;;;;;;37.67;21.05;;;2.90;99.90;;;;;;4865794;29;20246;-73
2023/01/29 12:15:24;;;;;;;36.05;19.52;;;2.90;99.90;;;;;;4873636;29;20234;-74
2023/01/29 12:18:12;;;;;;;37.83;19.35;;;2.90;99.90;;;;;;4843298;29;20230;-74
2023/01/29 12:20:47;;;;;;;35.75;20.00;;;2.90;99.90;;;;;;4963514;23;20272;-74
2023/01/29 12:23:41;;;;;;;34.78;18.77;;;2.90;99.90;;;;;;4916250;29;20240;-76
2023/01/29 12:26:35;;;;;;;41.45;22.45;;;2.90;99.90;;;;;;4900956;29;20225;-75
2023/01/29 12:29:41;;;;;;;35.08;20.00;;;2.90;99.90;;;;;;4890267;29;20205;-72
2023/01/29 12:32:38;;;;;;;36.17;19.77;;;2.90;99.90;;;;;;4852483;29;20218;-72
2023/01/29 12:35:44;;;;;;;34.05;19.27;;;2.90;99.90;;;;;;4859766;29;20210;-72
2023/01/29 12:38:21;;;;;;;40.60;20.42;;;3.00;99.90;;;;;;4832532;29;20210;-71
2023/01/29 12:40:58;;;;;;;33.70;20.00;;;3.00;99.90;;;;;;4859634;29;20190;-70
2023/01/29 12:43:47;;;;;;;37.30;20.08;;;3.00;99.90;;;;;;4859441;29;20195;-72
2023/01/29 12:46:23;;;;;;;34.25;19.65;;;3.00;99.90;;;;;;4858494;29;20214;-71
2023/01/29 12:48:53;;;;;;;35.70;19.63;;;3.00;99.90;;;;;;4859443;29;20206;-72
2023/01/29 12:51:26;;;;;;;37.58;21.13;;;3.00;99.90;;;;;;4859278;29;20191;-72
2023/01/29 12:54:11;;;;;;;36.85;19.13;;;3.00;99.90;;;;;;4859497;29;20187;-72
2023/01/29 12:56:41;;;;;;;36.60;19.85;;;3.00;99.90;;;;;;4843322;29;20237;-72
2023/01/29 12:59:27;;;;;;;39.60;20.20;;;3.00;99.90;;;;;;4860257;29;20160;-72
2023/01/29 13:02:11;;;;;;;35.63;19.15;;;3.00;99.90;;;;;;4859043;29;20582;-73
2023/01/29 13:04:44;;;;;;;37.95;20.55;;;3.00;99.90;;;;;;4891240;29;20178;-72
2023/01/29 13:07:33;;;;;;;35.40;18.60;;;3.00;99.90;;;;;;4882261;29;20201;-72
2023/01/29 13:10:16;;;;;;;40.78;21.90;;;3.10;99.90;;;;;;4890976;29;20306;-73
2023/01/29 13:13:01;;;;;;;34.60;19.88;;;3.10;99.90;;;;;;4865326;29;20178;-73
2023/01/29 13:15:34;;;;;;;38.20;21.50;;;3.10;99.90;;;;;;4864886;29;20230;-72
2023/01/29 13:18:23;;;;;;;40.10;21.30;;;3.10;99.90;;;;;;4880581;29;20166;-72
2023/01/29 13:20:53;;;;;;;37.00;19.48;;;3.10;99.90;;;;;;4880172;29;20269;-72
2023/01/29 13:23:26;;;;;;;35.38;20.02;;;3.10;99.90;;;;;;4881694;29;20191;-72
2023/01/29 13:25:52;;;;;;;33.50;20.15;;;3.10;99.90;;;;;;4865077;29;20245;-72
2023/01/29 13:28:26;;;;;;;39.05;20.83;;;3.10;99.90;;;;;;4880472;29;20550;-72
2023/01/29 13:31:19;;;;;;;40.95;21.48;;;3.10;99.90;;;;;;4865212;29;20170;-72
2023/01/29 13:33:53;;;;;;;35.83;20.58;;;3.10;99.90;;;;;;4880341;29;20177;-72
2023/01/29 13:36:27;;;;;;;35.67;21.23;;;3.10;99.90;;;;;;4880207;29;20300;-72
2023/01/29 13:39:22;;;;;;;35.70;19.73;;;3.10;99.90;;;;;;4880109;29;20601;-72
2023/01/29 13:41:50;;;;;;;32.15;19.48;;;3.10;99.90;;;;;;4862900;29;20670;-72